Time;durP1;ratioP1;P1;durP2;ratioP2;P2;SDS_P1;SDS_P2;PMS_P1;PMS_P2;Temp;Humidity;BMP_temperature;BMP_pressure;BME280_temperature;BME280_humidity;BME280_pressure;Samples;Min_cycle;Max_cycle;Signal;HPM_P1;HPM_P2
2023/12/13 00:01:45;;;;;;;7.13;3.33;;;11.40;83.50;;;;;;5053155;28;20029;-66
2023/12/13 00:04:10;;;;;;;8.70;4.03;;;11.40;83.60;;;;;;5049962;28;20032;-66
2023/12/13 00:06:38;;;;;;;9.77;4.07;;;11.40;83.60;;;;;;5053092;28;20338;-66
2023/12/13 00:09:04;;;;;;;9.82;3.95;;;11.40;83.50;;;;;;5052468;28;20036;-66
2023/12/13 00:11:29;;;;;;;8.38;3.60;;;11.40;83.50;;;;;;5053193;28;20029;-66
2023/12/13 00:13:55;;;;;;;7.22;3.38;;;11.40;83.50;;;;;;5052834;28;20128;-66
2023/12/13 00:16:21;;;;;;;8.02;3.78;;;11.40;83.50;;;;;;5051794;28;20438;-66
2023/12/13 00:18:47;;;;;;;7.68;3.58;;;11.40;83.40;;;;;;5052001;28;20025;-66
2023/12/13 00:21:15;;;;;;;7.07;3.30;;;11.30;83.40;;;;;;5051596;28;20405;-66
2023/12/13 00:23:48;;;;;;;8.13;3.25;;;11.40;83.40;;;;;;5051986;28;20028;-66
2023/12/13 00:26:17;;;;;;;8.18;3.40;;;11.30;83.40;;;;;;5052580;28;20049;-66
2023/12/13 00:28:44;;;;;;;8.13;3.20;;;11.30;83.30;;;;;;5051535;28;20116;-66
2023/12/13 00:31:10;;;;;;;6.85;3.28;;;11.30;83.40;;;;;;5049882;28;20071;-66
2023/12/13 00:33:37;;;;;;;7.95;3.22;;;11.30;83.40;;;;;;5051926;28;20029;-66
2023/12/13 00:36:04;;;;;;;8.20;3.35;;;11.30;83.40;;;;;;5052671;28;20025;-66
2023/12/13 00:38:29;;;;;;;6.45;3.10;;;11.30;83.40;;;;;;5052878;28;20025;-66
2023/12/13 00:40:55;;;;;;;7.95;3.08;;;11.30;83.50;;;;;;5051894;28;20417;-66
2023/12/13 00:43:21;;;;;;;5.78;2.33;;;11.30;83.40;;;;;;5051243;28;20449;-66
2023/12/13 00:45:48;;;;;;;7.07;2.65;;;11.20;83.40;;;;;;5052768;28;20025;-66
2023/12/13 00:48:13;;;;;;;8.43;3.53;;;11.30;83.40;;;;;;5052671;28;20062;-66
2023/12/13 00:50:39;;;;;;;7.63;2.92;;;11.20;83.30;;;;;;5050719;28;20029;-66
2023/12/13 00:53:05;;;;;;;9.38;2.92;;;11.30;83.30;;;;;;5052702;28;20091;-66
2023/12/13 00:55:30;;;;;;;7.80;2.72;;;11.30;83.30;;;;;;5049673;28;20060;-66
2023/12/13 00:57:57;;;;;;;8.00;3.03;;;11.30;83.30;;;;;;5052691;28;20075;-66
2023/12/13 01:00:23;;;;;;;8.50;2.85;;;11.30;83.20;;;;;;5049039;28;20034;-66
2023/12/13 01:02:49;;;;;;;6.85;2.70;;;11.30;83.20;;;;;;5049665;28;21706;-66
2023/12/13 01:05:14;;;;;;;7.00;2.70;;;11.30;83.20;;;;;;5034206;28;20036;-66
2023/12/13 01:07:40;;;;;;;6.43;2.80;;;11.30;83.20;;;;;;5052424;28;20021;-66
2023/12/13 01:10:07;;;;;;;5.25;2.67;;;11.30;83.90;;;;;;5052746;28;20027;-66
2023/12/13 01:12:33;;;;;;;5.45;2.70;;;11.30;83.20;;;;;;5051418;28;20029;-66
2023/12/13 01:14:58;;;;;;;7.78;3.55;;;11.30;83.20;;;;;;5051504;28;21168;-66
2023/12/13 01:17:24;;;;;;;7.78;3.10;;;11.30;83.30;;;;;;5051565;28;20392;-66
2023/12/13 01:19:52;;;;;;;8.88;3.20;;;11.30;83.20;;;;;;5052485;28;20017;-66
2023/12/13 01:22:18;;;;;;;6.57;2.75;;;11.20;83.10;;;;;;5053784;28;20445;-66
2023/12/13 01:24:44;;;;;;;7.88;3.35;;;11.30;83.20;;;;;;5055028;28;20029;-66
2023/12/13 01:27:10;;;;;;;7.47;2.70;;;11.30;83.20;;;;;;5054479;28;20376;-66
2023/12/13 01:29:36;;;;;;;8.35;3.28;;;11.20;83.10;;;;;;5054737;28;20039;-66
2023/12/13 01:32:02;;;;;;;8.45;2.60;;;11.20;83.10;;;;;;5054400;28;20086;-66
2023/12/13 01:34:29;;;;;;;7.13;2.60;;;11.30;83.20;;;;;;5056500;28;20032;-66
2023/12/13 01:36:55;;;;;;;7.85;2.55;;;11.20;83.10;;;;;;5055623;28;20132;-66
2023/12/13 01:39:20;;;;;;;7.00;2.50;;;11.20;83.10;;;;;;5055950;28;20107;-66
2023/12/13 01:41:46;;;;;;;11.40;3.03;;;11.20;83.10;;;;;;5058430;28;20024;-66
2023/12/13 01:44:12;;;;;;;5.63;2.17;;;11.20;83.10;;;;;;5055447;28;20036;-66
2023/12/13 01:46:39;;;;;;;8.55;2.70;;;11.20;83.00;;;;;;5055161;28;20029;-66
2023/12/13 01:49:06;;;;;;;7.43;2.33;;;11.20;83.00;;;;;;5053558;28;20036;-66
2023/12/13 01:51:33;;;;;;;7.35;2.38;;;11.20;83.00;;;;;;5055170;28;20182;-66
2023/12/13 01:54:00;;;;;;;7.30;2.70;;;11.20;83.00;;;;;;5054539;28;20501;-66
2023/12/13 01:56:27;;;;;;;7.88;3.20;;;11.20;83.00;;;;;;5054354;28;20045;-66
2023/12/13 01:58:53;;;;;;;6.82;2.17;;;11.20;83.00;;;;;;5057392;28;20041;-67
2023/12/13 02:01:19;;;;;;;7.97;2.30;;;11.20;83.00;;;;;;5058469;28;20116;-66
2023/12/13 02:03:45;;;;;;;7.00;2.78;;;11.20;83.00;;;;;;5056586;28;20090;-66
2023/12/13 02:06:11;;;;;;;6.95;2.20;;;11.20;83.00;;;;;;5056312;28;20091;-66
2023/12/13 02:08:37;;;;;;;8.20;2.80;;;11.20;83.00;;;;;;5055526;28;20052;-66
2023/12/13 02:11:03;;;;;;;7.80;2.42;;;11.20;83.00;;;;;;5057635;28;20445;-66
2023/12/13 02:13:29;;;;;;;7.13;2.50;;;11.20;82.90;;;;;;5057264;28;20061;-66
2023/12/13 02:15:55;;;;;;;6.35;2.53;;;11.20;82.90;;;;;;5054357;28;20040;-66
2023/12/13 02:18:21;;;;;;;8.40;2.90;;;11.20;82.90;;;;;;5056094;28;20024;-66
2023/12/13 02:20:48;;;;;;;6.88;2.30;;;11.20;82.90;;;;;;5053901;28;20028;-66
2023/12/13 02:23:14;;;;;;;5.55;2.55;;;11.20;82.90;;;;;;5054072;28;20425;-66
2023/12/13 02:26:00;;;;;;;5.47;2.22;;;11.20;82.90;;;;;;5055314;28;20060;-67
2023/12/13 02:28:26;;;;;;;8.57;2.72;;;11.20;82.90;;;;;;5054903;28;20037;-66
2023/12/13 02:31:00;;;;;;;6.88;2.13;;;11.20;82.90;;;;;;5058818;28;20104;-66
2023/12/13 02:33:27;;;;;;;4.95;1.90;;;11.20;82.90;;;;;;5038107;28;20334;-66
2023/12/13 02:35:54;;;;;;;7.47;2.10;;;11.20;82.90;;;;;;5055962;28;20039;-66
2023/12/13 02:38:20;;;;;;;5.72;2.25;;;11.20;82.90;;;;;;5056332;28;20446;-66
2023/12/13 02:40:46;;;;;;;5.43;2.15;;;11.20;82.80;;;;;;5039614;28;20031;-66
2023/12/13 02:43:12;;;;;;;5.18;2.03;;;11.20;82.80;;;;;;5055609;28;20105;-66
2023/12/13 02:45:38;;;;;;;5.75;2.10;;;11.20;82.70;;;;;;5053072;28;20115;-66
2023/12/13 02:48:04;;;;;;;5.93;2.25;;;11.20;83.30;;;;;;5051806;28;20515;-66
2023/12/13 02:50:30;;;;;;;5.75;2.35;;;11.20;82.70;;;;;;5054630;28;20020;-66
2023/12/13 02:52:55;;;;;;;7.07;2.13;;;11.20;82.70;;;;;;5056494;28;20438;-66
2023/12/13 02:55:21;;;;;;;4.60;1.70;;;11.20;82.70;;;;;;5057197;28;21072;-66
2023/12/13 02:57:47;;;;;;;8.25;2.45;;;11.20;82.70;;;;;;5058320;28;20024;-66
2023/12/13 03:00:13;;;;;;;7.53;2.35;;;11.20;82.70;;;;;;5056303;28;20051;-66
2023/12/13 03:02:40;;;;;;;5.88;1.73;;;11.20;82.70;;;;;;5055453;28;20454;-66
2023/12/13 03:05:06;;;;;;;7.18;2.45;;;11.20;82.70;;;;;;5055708;28;20028;-66
2023/12/13 03:07:32;;;;;;;6.72;2.45;;;11.20;82.70;;;;;;5052794;28;20022;-65
2023/12/13 03:09:58;;;;;;;5.00;1.63;;;11.20;82.70;;;;;;5056650;28;20025;-66
2023/12/13 03:12:23;;;;;;;7.38;2.05;;;11.20;82.70;;;;;;5054032;28;20024;-66
2023/12/13 03:14:49;;;;;;;6.43;2.00;;;11.20;82.70;;;;;;5055288;28;20356;-66
2023/12/13 03:17:15;;;;;;;6.72;2.00;;;11.20;82.70;;;;;;5052806;28;20024;-65
2023/12/13 03:19:41;;;;;;;5.53;1.88;;;11.20;82.70;;;;;;5055208;28;20032;-66
2023/12/13 03:22:07;;;;;;;5.28;2.10;;;11.20;82.70;;;;;;5053608;28;20043;-66
2023/12/13 03:24:34;;;;;;;6.25;1.70;;;11.20;82.70;;;;;;5053467;28;20037;-66
2023/12/13 03:27:00;;;;;;;4.70;2.00;;;11.20;82.70;;;;;;5054026;28;20500;-66
2023/12/13 03:29:25;;;;;;;6.57;2.17;;;11.20;82.70;;;;;;5055302;28;20025;-66
2023/12/13 03:31:51;;;;;;;5.68;2.03;;;11.20;82.70;;;;;;5054575;28;20013;-66
2023/12/13 03:34:17;;;;;;;5.65;2.13;;;11.20;82.70;;;;;;5054596;28;20020;-65
2023/12/13 03:36:42;;;;;;;7.40;2.03;;;11.20;82.70;;;;;;5053822;28;20498;-66
2023/12/13 03:39:08;;;;;;;6.55;2.15;;;11.20;82.80;;;;;;5053344;28;20361;-66
2023/12/13 03:41:34;;;;;;;7.00;2.47;;;11.10;82.70;;;;;;5052986;28;20033;-66
2023/12/13 03:44:00;;;;;;;6.20;2.08;;;11.10;82.70;;;;;;5051538;28;20064;-66
2023/12/13 03:46:26;;;;;;;7.63;2.50;;;11.10;82.80;;;;;;5053248;28;20025;-66
2023/12/13 03:48:51;;;;;;;7.68;2.42;;;11.10;82.80;;;;;;5054028;28;20215;-66
2023/12/13 03:51:17;;;;;;;5.70;2.50;;;11.10;82.80;;;;;;5054334;28;20138;-66
2023/12/13 03:53:43;;;;;;;7.70;2.80;;;11.10;82.80;;;;;;5054675;28;20078;-66
2023/12/13 03:56:12;;;;;;;5.60;2.45;;;11.10;82.80;;;;;;5052971;28;20025;-66
2023/12/13 03:58:38;;;;;;;8.38;2.55;;;11.20;82.90;;;;;;5053835;28;20334;-66
2023/12/13 04:01:04;;;;;;;8.00;2.40;;;11.10;82.90;;;;;;5054763;28;20037;-66
2023/12/13 04:03:32;;;;;;;7.05;3.25;;;11.10;82.90;;;;;;5052098;28;20029;-66
2023/12/13 04:05:58;;;;;;;5.90;2.75;;;11.20;82.90;;;;;;5055138;28;20039;-66
2023/12/13 04:08:24;;;;;;;9.80;3.40;;;11.20;83.00;;;;;;5053056;28;21243;-66
2023/12/13 04:10:49;;;;;;;7.10;2.90;;;11.10;82.90;;;;;;5036329;28;20021;-66
2023/12/13 04:13:15;;;;;;;8.18;3.25;;;11.20;83.00;;;;;;5048685;28;20087;-66
2023/12/13 04:15:42;;;;;;;8.10;3.20;;;11.10;83.10;;;;;;5053079;28;20469;-66
2023/12/13 04:18:08;;;;;;;10.10;3.70;;;11.10;83.10;;;;;;5055881;28;20048;-66
2023/12/13 04:20:33;;;;;;;8.30;3.40;;;11.10;83.10;;;;;;5052599;28;20018;-66
2023/12/13 04:22:59;;;;;;;9.05;4.25;;;11.10;83.20;;;;;;5053969;28;20354;-66
2023/12/13 04:25:25;;;;;;;7.57;3.70;;;11.10;83.20;;;;;;5055141;28;20442;-66
2023/12/13 04:27:50;;;;;;;7.70;4.10;;;11.10;83.30;;;;;;5052486;28;20044;-66
2023/12/13 04:30:16;;;;;;;8.48;3.72;;;11.10;83.30;;;;;;5054031;28;20071;-66
2023/12/13 04:32:42;;;;;;;8.32;3.90;;;11.10;83.30;;;;;;5052149;28;20041;-66
2023/12/13 04:35:09;;;;;;;8.80;4.18;;;11.20;83.40;;;;;;5052361;28;20058;-66
2023/12/13 04:37:35;;;;;;;8.23;3.97;;;11.20;83.40;;;;;;5051922;28;20029;-66
2023/12/13 04:40:02;;;;;;;10.00;4.30;;;11.10;83.40;;;;;;5054868;28;20021;-66
2023/12/13 04:42:28;;;;;;;8.57;4.00;;;11.10;83.40;;;;;;5056855;28;20469;-66
2023/12/13 04:44:54;;;;;;;9.32;4.13;;;11.20;83.50;;;;;;5052543;28;20017;-66
2023/12/13 04:47:20;;;;;;;10.48;4.22;;;11.10;83.40;;;;;;5056811;28;20465;-66
2023/12/13 04:49:46;;;;;;;11.32;4.30;;;11.20;83.50;;;;;;5052714;28;20122;-66
2023/12/13 04:52:11;;;;;;;9.13;3.78;;;11.20;83.50;;;;;;5053002;28;20113;-66
2023/12/13 04:54:37;;;;;;;10.15;4.35;;;11.20;83.60;;;;;;5050844;28;20028;-66
2023/12/13 04:57:06;;;;;;;7.80;3.90;;;11.10;83.60;;;;;;5054312;28;20044;-66
2023/12/13 04:59:32;;;;;;;8.80;4.00;;;11.20;83.60;;;;;;5038773;28;20033;-66
2023/12/13 05:01:57;;;;;;;10.25;4.72;;;11.20;83.60;;;;;;5055408;28;20021;-65
2023/12/13 05:04:23;;;;;;;7.93;3.97;;;11.20;83.60;;;;;;5037370;28;20031;-66
2023/12/13 05:06:49;;;;;;;9.18;4.18;;;11.20;83.60;;;;;;5057037;28;20013;-66
2023/12/13 05:09:15;;;;;;;9.80;4.30;;;11.20;83.60;;;;;;5057141;28;20365;-66
2023/12/13 05:11:41;;;;;;;8.15;3.92;;;11.20;83.60;;;;;;5056233;28;20037;-66
2023/12/13 05:14:07;;;;;;;11.38;4.25;;;11.20;83.60;;;;;;5056988;28;20033;-66
2023/12/13 05:16:33;;;;;;;8.05;4.20;;;11.20;83.60;;;;;;5061127;28;20041;-66
2023/12/13 05:19:00;;;;;;;9.02;4.47;;;11.20;83.60;;;;;;5056636;28;20032;-66
2023/12/13 05:21:26;;;;;;;10.93;4.97;;;11.20;83.60;;;;;;5039050;28;20071;-66
2023/12/13 05:23:52;;;;;;;8.65;4.53;;;11.20;83.70;;;;;;5055827;28;20081;-66
2023/12/13 05:26:17;;;;;;;10.05;4.95;;;11.20;83.70;;;;;;5056047;28;20044;-66
2023/12/13 05:28:43;;;;;;;11.27;4.55;;;11.20;83.80;;;;;;5055368;28;20111;-66
2023/12/13 05:31:22;;;;;;;9.65;4.75;;;11.20;83.80;;;;;;5056183;28;20017;-66
2023/12/13 05:33:49;;;;;;;10.07;4.22;;;11.20;83.80;;;;;;5059584;28;20028;-66
2023/12/13 05:36:15;;;;;;;9.13;4.15;;;11.20;83.80;;;;;;5055742;28;20112;-66
2023/12/13 05:38:41;;;;;;;9.15;4.57;;;11.20;83.80;;;;;;5055030;28;20092;-66
2023/12/13 05:41:07;;;;;;;12.05;4.90;;;11.20;83.80;;;;;;5055437;28;20458;-66
2023/12/13 05:43:36;;;;;;;8.77;4.57;;;11.20;83.80;;;;;;5057797;28;20040;-66
2023/12/13 05:46:06;;;;;;;8.70;4.70;;;11.20;83.90;;;;;;5055733;28;20090;-66
2023/12/13 05:48:32;;;;;;;10.68;4.90;;;11.20;83.90;;;;;;5052446;28;20032;-66
2023/12/13 05:50:58;;;;;;;14.45;5.65;;;11.20;83.90;;;;;;5057105;28;20097;-66
2023/12/13 05:53:24;;;;;;;9.20;4.80;;;11.10;83.90;;;;;;5056261;28;20039;-66
2023/12/13 05:55:50;;;;;;;9.52;4.75;;;11.20;83.90;;;;;;5053742;28;20021;-66
2023/12/13 05:58:16;;;;;;;9.63;4.85;;;11.20;83.90;;;;;;5054274;28;20519;-66
2023/12/13 06:00:42;;;;;;;9.63;5.13;;;11.20;83.90;;;;;;5057092;28;20059;-66
2023/12/13 06:03:09;;;;;;;8.13;4.18;;;11.20;84.00;;;;;;5054573;28;20021;-66
2023/12/13 06:05:35;;;;;;;11.00;4.32;;;11.20;83.90;;;;;;5040011;28;20500;-66
2023/12/13 06:08:00;;;;;;;12.15;4.55;;;11.20;83.90;;;;;;5055227;28;20112;-66
2023/12/13 06:10:26;;;;;;;10.73;4.50;;;11.20;83.90;;;;;;5056096;28;20110;-66
2023/12/13 06:12:52;;;;;;;10.82;4.28;;;11.20;83.90;;;;;;5057976;28;20072;-66
2023/12/13 06:15:21;;;;;;;11.55;4.85;;;11.20;84.00;;;;;;5056817;28;20032;-66
2023/12/13 06:17:47;;;;;;;9.40;4.63;;;11.20;84.00;;;;;;5054918;28;20071;-66
2023/12/13 06:20:13;;;;;;;10.10;4.50;;;11.20;84.00;;;;;;5054030;28;20028;-66
2023/12/13 06:22:39;;;;;;;11.00;4.30;;;11.20;84.10;;;;;;5055054;28;20354;-66
2023/12/13 06:25:05;;;;;;;8.85;4.53;;;11.20;84.10;;;;;;5058570;28;20099;-66
2023/12/13 06:27:31;;;;;;;10.63;4.50;;;11.20;84.10;;;;;;5049663;28;20037;-65
2023/12/13 06:29:57;;;;;;;9.48;4.63;;;11.20;84.10;;;;;;5057534;28;20028;-66
2023/12/13 06:32:23;;;;;;;9.57;4.43;;;11.20;84.10;;;;;;5057746;28;20063;-66
2023/12/13 06:34:48;;;;;;;12.80;4.70;;;11.20;84.20;;;;;;5038701;28;20449;-67
2023/12/13 06:37:14;;;;;;;10.93;5.32;;;11.20;84.20;;;;;;5056458;28;20357;-66
2023/12/13 06:39:40;;;;;;;10.60;4.60;;;11.20;84.20;;;;;;5051870;28;20021;-66
2023/12/13 06:42:09;;;;;;;17.33;4.45;;;11.20;84.30;;;;;;5056460;28;20029;-66
2023/12/13 06:44:39;;;;;;;12.27;4.38;;;11.20;84.30;;;;;;5054419;28;20116;-66
2023/12/13 06:47:05;;;;;;;11.85;5.40;;;11.20;84.30;;;;;;5055785;28;20115;-67
2023/12/13 06:49:34;;;;;;;9.57;5.00;;;11.20;84.30;;;;;;5034790;28;20029;-67
2023/12/13 06:52:02;;;;;;;9.88;5.03;;;11.20;84.30;;;;;;5056231;28;20122;-66
2023/12/13 06:54:28;;;;;;;12.15;5.60;;;11.20;84.30;;;;;;5075063;28;20372;-66
2023/12/13 06:56:55;;;;;;;11.45;5.00;;;11.20;84.40;;;;;;5066302;28;20124;-67
2023/12/13 06:59:20;;;;;;;12.50;5.40;;;11.20;84.40;;;;;;5066241;28;20361;-66
2023/12/13 07:01:46;;;;;;;11.90;4.88;;;11.20;84.30;;;;;;5067768;28;20032;-66
2023/12/13 07:04:12;;;;;;;14.15;5.88;;;11.20;84.40;;;;;;5075337;28;20043;-66
2023/12/13 07:06:38;;;;;;;14.35;6.10;;;11.20;84.40;;;;;;5074782;28;20353;-66
2023/12/13 07:09:03;;;;;;;12.23;5.65;;;11.20;84.40;;;;;;5059035;28;20174;-66
2023/12/13 07:11:29;;;;;;;11.18;5.30;;;11.20;84.40;;;;;;5054597;28;20032;-66
2023/12/13 07:13:55;;;;;;;12.45;5.28;;;11.20;84.40;;;;;;5055524;28;20031;-66
2023/12/13 07:16:21;;;;;;;11.10;5.13;;;11.20;84.40;;;;;;5060482;28;20088;-66
2023/12/13 07:18:47;;;;;;;10.10;4.85;;;11.20;84.40;;;;;;5072716;28;20352;-65
2023/12/13 07:21:13;;;;;;;10.40;5.13;;;11.20;84.40;;;;;;5059775;28;20460;-66
2023/12/13 07:23:40;;;;;;;11.35;4.82;;;11.20;84.40;;;;;;5069102;28;20033;-66
2023/12/13 07:26:06;;;;;;;14.77;5.13;;;11.20;84.40;;;;;;5065829;28;20468;-66
2023/12/13 07:28:32;;;;;;;12.98;5.00;;;11.20;84.40;;;;;;5074328;28;20353;-66
2023/12/13 07:31:03;;;;;;;14.38;5.40;;;11.20;84.30;;;;;;5049870;28;20054;-66
2023/12/13 07:33:28;;;;;;;13.05;4.95;;;11.20;84.40;;;;;;5067014;28;20082;-66
2023/12/13 07:35:54;;;;;;;11.68;4.85;;;11.20;84.30;;;;;;5045795;28;20033;-65
2023/12/13 07:38:20;;;;;;;14.02;5.13;;;11.20;84.40;;;;;;5075126;28;20123;-66
2023/12/13 07:40:47;;;;;;;11.50;4.97;;;11.20;84.40;;;;;;5069648;28;20048;-66
2023/12/13 07:43:13;;;;;;;9.18;4.28;;;11.20;84.40;;;;;;5074686;28;20032;-66
2023/12/13 07:45:39;;;;;;;11.50;5.22;;;11.20;84.40;;;;;;5065406;28;20067;-65
2023/12/13 07:48:05;;;;;;;11.40;4.60;;;11.20;84.40;;;;;;5064769;28;20053;-66
2023/12/13 07:50:31;;;;;;;12.55;4.40;;;11.20;84.40;;;;;;5055537;28;20029;-66
2023/12/13 07:52:57;;;;;;;12.95;4.38;;;11.20;84.40;;;;;;5054409;28;20044;-66
2023/12/13 07:55:24;;;;;;;10.20;4.80;;;11.30;84.40;;;;;;5053529;28;20037;-67
2023/12/13 07:57:50;;;;;;;10.70;4.75;;;11.30;84.30;;;;;;5052192;28;20047;-67
2023/12/13 08:00:16;;;;;;;12.68;5.13;;;11.30;84.30;;;;;;5053554;28;20032;-67
2023/12/13 08:02:42;;;;;;;10.80;4.65;;;11.30;84.30;;;;;;5052804;28;20111;-66
2023/12/13 08:05:08;;;;;;;10.45;4.60;;;11.30;84.20;;;;;;5050750;28;20111;-66
2023/12/13 08:07:37;;;;;;;12.10;4.93;;;11.40;84.20;;;;;;5053618;28;20021;-66
2023/12/13 08:10:06;;;;;;;16.00;5.40;;;11.40;84.20;;;;;;5051488;28;20025;-66
2023/12/13 08:12:34;;;;;;;13.00;4.53;;;11.40;84.10;;;;;;5051274;28;20109;-68
2023/12/13 08:15:01;;;;;;;13.20;4.32;;;11.40;84.10;;;;;;5055061;28;20460;-66
2023/12/13 08:17:27;;;;;;;12.23;4.60;;;11.40;84.10;;;;;;5055870;28;20021;-67
2023/12/13 08:19:54;;;;;;;10.00;4.60;;;11.40;84.20;;;;;;5055155;28;20075;-67
2023/12/13 08:22:19;;;;;;;10.23;4.75;;;11.40;84.20;;;;;;5052644;28;20099;-67
2023/12/13 08:24:45;;;;;;;12.68;5.38;;;11.40;84.30;;;;;;5053871;28;20453;-67
2023/12/13 08:27:11;;;;;;;13.38;5.13;;;11.40;84.30;;;;;;5055929;28;20098;-66
2023/12/13 08:29:36;;;;;;;14.43;5.30;;;11.40;84.30;;;;;;5056436;28;20488;-65
2023/12/13 08:32:03;;;;;;;12.07;4.85;;;11.40;84.40;;;;;;5058229;28;20029;-66
2023/12/13 08:34:28;;;;;;;11.90;4.47;;;11.40;84.40;;;;;;5058526;28;20051;-66
2023/12/13 08:36:54;;;;;;;13.00;5.30;;;11.40;84.40;;;;;;5057273;28;20041;-66
2023/12/13 08:39:21;;;;;;;13.88;4.60;;;11.40;84.40;;;;;;5061525;28;20024;-67
2023/12/13 08:41:47;;;;;;;13.23;4.60;;;11.40;85.00;;;;;;5058365;28;20041;-66
2023/12/13 08:44:13;;;;;;;10.40;4.30;;;11.40;85.00;;;;;;5062705;28;20028;-66
2023/12/13 08:46:39;;;;;;;12.18;5.45;;;11.40;84.30;;;;;;5067296;28;20329;-66
2023/12/13 08:49:05;;;;;;;10.02;4.53;;;11.40;84.30;;;;;;5076817;28;20353;-66
2023/12/13 08:51:30;;;;;;;14.35;4.97;;;11.40;84.30;;;;;;5068046;28;20021;-66
2023/12/13 08:53:56;;;;;;;10.23;4.25;;;11.40;84.40;;;;;;5053192;28;20036;-66
2023/12/13 08:56:22;;;;;;;11.80;5.00;;;11.40;84.30;;;;;;5066684;28;20036;-66
2023/12/13 08:58:48;;;;;;;11.77;4.43;;;11.40;84.30;;;;;;5077827;28;20024;-66
2023/12/13 09:01:14;;;;;;;11.95;5.32;;;11.40;84.40;;;;;;5077840;28;20103;-66
2023/12/13 09:03:43;;;;;;;11.25;5.15;;;11.40;84.40;;;;;;5073489;28;20668;-66
2023/12/13 09:06:09;;;;;;;13.07;4.72;;;11.40;84.40;;;;;;5050549;28;20029;-67
2023/12/13 09:08:35;;;;;;;10.57;4.90;;;11.40;84.40;;;;;;5074382;28;20111;-66
2023/12/13 09:11:00;;;;;;;13.35;5.05;;;11.40;84.40;;;;;;5061235;28;20067;-66
2023/12/13 09:13:27;;;;;;;11.73;4.88;;;11.40;84.40;;;;;;5075526;28;20032;-66
2023/12/13 09:15:56;;;;;;;14.18;5.10;;;11.40;84.40;;;;;;5048552;28;20437;-66
2023/12/13 09:18:21;;;;;;;13.98;5.47;;;11.40;84.40;;;;;;5077708;28;20071;-66
2023/12/13 09:20:47;;;;;;;10.40;4.78;;;11.50;84.40;;;;;;5076716;28;20029;-66
2023/12/13 09:23:23;;;;;;;13.90;4.90;;;11.50;84.40;;;;;;5077457;28;20128;-66
2023/12/13 09:25:49;;;;;;;11.45;4.63;;;11.50;84.40;;;;;;5072946;28;20349;-66
2023/12/13 09:28:15;;;;;;;16.23;5.80;;;11.50;84.40;;;;;;5077260;28;20518;-66
2023/12/13 09:30:42;;;;;;;10.35;4.60;;;11.50;84.40;;;;;;5057494;28;20033;-66
2023/12/13 09:33:08;;;;;;;9.82;4.70;;;11.50;84.30;;;;;;5063404;28;20028;-66
2023/12/13 09:35:33;;;;;;;11.05;5.53;;;11.50;84.30;;;;;;5056323;28;20032;-66
2023/12/13 09:37:59;;;;;;;13.00;5.10;;;11.50;84.30;;;;;;5077382;28;20037;-65
2023/12/13 09:40:25;;;;;;;10.32;4.90;;;11.50;84.30;;;;;;5076693;28;20170;-65
2023/12/13 09:42:52;;;;;;;12.30;5.57;;;11.60;84.30;;;;;;5076259;28;20040;-65
2023/12/13 09:45:21;;;;;;;11.63;4.65;;;11.50;84.30;;;;;;5075217;28;20033;-65
2023/12/13 09:47:51;;;;;;;11.52;5.10;;;11.50;84.30;;;;;;5062655;28;20338;-66
2023/12/13 09:50:18;;;;;;;12.00;4.82;;;11.50;84.30;;;;;;5076751;28;20034;-66
2023/12/13 09:52:44;;;;;;;12.90;5.28;;;11.50;84.30;;;;;;5076724;28;20036;-66
2023/12/13 09:55:13;;;;;;;14.80;5.78;;;11.50;84.30;;;;;;5057138;28;20124;-66
2023/12/13 09:57:39;;;;;;;11.55;4.50;;;11.50;84.40;;;;;;5062073;28;20036;-66
2023/12/13 10:00:05;;;;;;;13.63;5.20;;;11.50;84.30;;;;;;5060468;28;20037;-66
2023/12/13 10:02:34;;;;;;;11.27;4.78;;;11.50;84.40;;;;;;5073412;28;20334;-66
2023/12/13 10:05:00;;;;;;;14.23;5.05;;;11.50;84.40;;;;;;5075683;28;20039;-66
2023/12/13 10:07:28;;;;;;;13.90;5.13;;;11.50;84.40;;;;;;5070238;28;20074;-67
2023/12/13 10:09:55;;;;;;;16.05;6.28;;;11.60;84.40;;;;;;5050243;28;20063;-67
2023/12/13 10:12:22;;;;;;;11.80;5.53;;;11.60;84.40;;;;;;5071237;28;20037;-67
2023/12/13 10:14:48;;;;;;;11.25;5.20;;;11.60;84.40;;;;;;5068562;28;20361;-67
2023/12/13 10:17:13;;;;;;;11.30;5.25;;;11.60;84.30;;;;;;5055656;28;20024;-66
2023/12/13 10:19:40;;;;;;;10.88;5.75;;;11.60;84.30;;;;;;5048963;28;20065;-67
2023/12/13 10:22:06;;;;;;;15.48;5.43;;;11.60;84.30;;;;;;5059398;28;20048;-67
2023/12/13 10:24:32;;;;;;;14.00;5.70;;;11.60;84.30;;;;;;5066853;28;20436;-67
2023/12/13 10:26:58;;;;;;;13.48;5.65;;;11.60;84.20;;;;;;5060777;28;20377;-67
2023/12/13 10:29:24;;;;;;;13.93;5.82;;;11.60;84.30;;;;;;5066356;28;20021;-67
2023/12/13 10:31:49;;;;;;;10.90;5.28;;;11.60;84.30;;;;;;5062579;28;20025;-66
2023/12/13 10:34:16;;;;;;;12.98;5.82;;;11.60;84.30;;;;;;5059654;28;20032;-66
2023/12/13 10:36:45;;;;;;;11.82;5.10;;;11.60;84.30;;;;;;5054568;28;20034;-65
2023/12/13 10:39:13;;;;;;;11.85;5.00;;;11.60;84.20;;;;;;5034259;28;20045;-65
2023/12/13 10:41:44;;;;;;;10.27;5.82;;;11.60;84.20;;;;;;5041794;28;20374;-65
2023/12/13 10:44:15;;;;;;;9.95;5.28;;;11.60;84.20;;;;;;5036579;28;20105;-66
2023/12/13 10:46:46;;;;;;;12.55;5.18;;;11.60;84.20;;;;;;5050289;28;20025;-66
2023/12/13 10:49:16;;;;;;;10.43;4.78;;;11.60;84.20;;;;;;5041227;28;20338;-67
2023/12/13 10:51:43;;;;;;;10.18;4.47;;;11.60;84.20;;;;;;5038878;28;20436;-67
2023/12/13 10:54:11;;;;;;;13.23;4.90;;;11.50;84.10;;;;;;5036595;28;20035;-67
2023/12/13 10:56:37;;;;;;;14.20;5.63;;;11.60;84.20;;;;;;5046696;28;20025;-69
2023/12/13 10:59:04;;;;;;;10.27;4.95;;;11.50;84.10;;;;;;5052070;28;20041;-65
2023/12/13 11:01:31;;;;;;;9.38;4.32;;;11.50;84.10;;;;;;5050444;28;20132;-66
2023/12/13 11:04:12;;;;;;;9.68;4.53;;;11.60;84.10;;;;;;5038816;28;20026;-68
2023/12/13 11:06:38;;;;;;;8.05;4.13;;;11.50;84.00;;;;;;5035782;28;20132;-66
2023/12/13 11:09:13;;;;;;;11.38;4.82;;;11.50;84.00;;;;;;5036836;28;20097;-65
2023/12/13 11:11:41;;;;;;;11.02;4.32;;;11.50;84.00;;;;;;5039761;28;20084;-67
2023/12/13 11:14:08;;;;;;;8.70;4.20;;;11.50;84.00;;;;;;5039676;28;20435;-67
2023/12/13 11:16:44;;;;;;;10.02;3.80;;;11.50;84.00;;;;;;5050793;28;20026;-65
2023/12/13 11:19:12;;;;;;;7.75;3.55;;;11.50;84.00;;;;;;5041194;28;20436;-67
2023/12/13 11:21:40;;;;;;;7.22;3.00;;;11.50;84.00;;;;;;5040007;28;20397;-66
2023/12/13 11:24:25;;;;;;;8.57;3.00;;;11.50;83.90;;;;;;5035809;28;20034;-67
2023/12/13 11:26:53;;;;;;;8.00;2.70;;;11.50;83.80;;;;;;5040140;28;20465;-66
2023/12/13 11:29:22;;;;;;;10.10;2.80;;;11.50;83.70;;;;;;5052893;28;20437;-66
2023/12/13 11:32:02;;;;;;;7.18;2.75;;;11.50;83.70;;;;;;5036679;28;20072;-66
2023/12/13 11:34:35;;;;;;;7.10;2.65;;;11.50;83.60;;;;;;5040568;28;20521;-65
2023/12/13 11:37:04;;;;;;;8.50;2.88;;;11.50;83.60;;;;;;5046308;28;20407;-65
2023/12/13 11:39:30;;;;;;;7.07;2.63;;;11.40;83.50;;;;;;5052363;28;20118;-65
2023/12/13 11:41:58;;;;;;;6.10;2.58;;;11.50;83.50;;;;;;5052180;28;20079;-66
2023/12/13 11:44:34;;;;;;;7.68;2.38;;;11.40;83.50;;;;;;5051316;28;20020;-66
2023/12/13 11:47:06;;;;;;;6.25;2.63;;;11.40;83.40;;;;;;5053461;28;20075;-66
2023/12/13 11:49:32;;;;;;;8.45;2.58;;;11.40;83.40;;;;;;5053164;28;20557;-65
2023/12/13 11:51:58;;;;;;;7.65;2.22;;;11.40;83.40;;;;;;5051892;28;20176;-65
2023/12/13 11:54:24;;;;;;;5.82;2.30;;;11.40;83.40;;;;;;5052425;28;20040;-66
2023/12/13 11:56:50;;;;;;;5.57;2.53;;;11.40;83.40;;;;;;5053458;28;20025;-65
2023/12/13 11:59:19;;;;;;;5.57;2.10;;;11.40;83.40;;;;;;5056034;28;20049;-66
2023/12/13 12:01:45;;;;;;;8.50;2.40;;;11.40;83.40;;;;;;5070893;28;20338;-66
2023/12/13 12:04:11;;;;;;;5.18;2.00;;;11.30;83.30;;;;;;5064899;28;20025;-66
2023/12/13 12:06:45;;;;;;;4.72;1.98;;;11.30;83.30;;;;;;5069255;28;20033;-65
2023/12/13 12:09:11;;;;;;;7.13;2.50;;;11.30;83.30;;;;;;5073464;28;20476;-66
2023/12/13 12:11:37;;;;;;;7.93;3.30;;;11.30;83.40;;;;;;5073906;28;20028;-66
2023/12/13 12:14:10;;;;;;;7.63;3.17;;;11.30;83.40;;;;;;5069820;28;20025;-65
2023/12/13 12:16:37;;;;;;;10.02;3.47;;;11.30;83.40;;;;;;5064802;28;20054;-65
2023/12/13 12:19:04;;;;;;;8.40;3.67;;;11.30;83.40;;;;;;5074279;28;20032;-66
2023/12/13 12:21:32;;;;;;;8.10;3.85;;;11.30;83.40;;;;;;5074158;28;20024;-65
2023/12/13 12:24:01;;;;;;;8.25;4.05;;;11.30;83.50;;;;;;5072818;28;20036;-65
2023/12/13 12:26:27;;;;;;;8.27;3.50;;;11.30;83.40;;;;;;5059518;28;20037;-66
2023/12/13 12:28:53;;;;;;;8.40;3.08;;;11.30;83.50;;;;;;5053047;28;20036;-66
2023/12/13 12:31:18;;;;;;;8.73;3.30;;;11.30;83.40;;;;;;5068506;28;20039;-66
2023/12/13 12:33:55;;;;;;;7.72;3.17;;;11.30;83.40;;;;;;5056664;28;20032;-66
2023/12/13 12:36:22;;;;;;;8.48;3.75;;;11.30;83.40;;;;;;5069393;28;20119;-66
2023/12/13 12:38:47;;;;;;;6.30;2.67;;;11.30;83.40;;;;;;5073884;28;20029;-66
2023/12/13 12:41:14;;;;;;;6.70;2.92;;;11.20;83.40;;;;;;5073660;28;20104;-65